createdAt,value
2018-07-01T00:02:08.539Z,21.00
2018-07-01T00:04:36.113Z,21.40
2018-07-01T00:07:03.583Z,21.50
2018-07-01T00:09:31.051Z,21.10
2018-07-01T00:11:58.511Z,20.90
2018-07-01T00:14:25.969Z,20.90
2018-07-01T00:16:53.511Z,20.80
2018-07-01T00:19:21.079Z,20.80
2018-07-01T00:21:48.545Z,21.20
2018-07-01T00:24:16.015Z,21.00
2018-07-01T00:26:43.481Z,21.50
2018-07-01T00:29:11.043Z,21.50
2018-07-01T00:31:39.271Z,20.80
2018-07-01T00:34:06.832Z,20.70
2018-07-01T00:36:34.296Z,20.50
2018-07-01T00:39:01.752Z,20.90
2018-07-01T00:41:29.235Z,20.90
2018-07-01T00:43:56.692Z,20.80
2018-07-01T00:46:24.164Z,20.70
2018-07-01T00:48:51.640Z,20.50
2018-07-01T00:51:19.107Z,20.40
2018-07-01T00:53:46.564Z,20.50
2018-07-01T00:56:14.097Z,20.30
2018-07-01T00:58:41.612Z,20.20
2018-07-01T01:01:09.835Z,20.40
2018-07-01T01:03:37.808Z,20.40
2018-07-01T01:06:05.279Z,20.30
2018-07-01T01:08:32.756Z,20.20
2018-07-01T01:11:00.232Z,19.90
2018-07-01T01:13:27.700Z,19.90
2018-07-01T01:15:55.168Z,19.90
2018-07-01T01:18:24.158Z,20.00
2018-07-01T01:20:51.729Z,20.00
2018-07-01T01:23:20.007Z,19.40
2018-07-01T01:25:47.471Z,19.40
2018-07-01T01:28:16.449Z,19.50
2018-07-01T01:30:43.908Z,19.50
2018-07-01T01:33:11.375Z,19.60
2018-07-01T01:35:38.859Z,19.50
2018-07-01T01:38:07.087Z,20.10
2018-07-01T01:40:34.559Z,20.00
2018-07-01T01:43:02.032Z,19.70
2018-07-01T01:45:29.503Z,19.40
2018-07-01T01:47:56.970Z,19.50
2018-07-01T01:50:24.415Z,19.40
2018-07-01T01:52:51.881Z,19.20
2018-07-01T01:55:19.339Z,19.40
2018-07-01T01:57:46.802Z,19.40
2018-07-01T02:00:14.251Z,19.30
2018-07-01T02:02:41.717Z,19.10
2018-07-01T02:05:09.171Z,19.40
2018-07-01T02:07:36.631Z,19.30
2018-07-01T02:10:04.088Z,19.00
2018-07-01T02:12:31.548Z,19.50
2018-07-01T02:14:59.006Z,19.40
2018-07-01T02:17:27.228Z,19.20
2018-07-01T02:19:54.695Z,19.20
2018-07-01T02:22:22.626Z,19.20
2018-07-01T02:24:50.085Z,19.10
2018-07-01T02:27:17.532Z,19.30
2018-07-01T02:29:45.751Z,19.10
2018-07-01T02:32:13.213Z,19.10
2018-07-01T02:34:40.679Z,19.10
2018-07-01T02:37:08.160Z,19.00
2018-07-01T02:39:35.633Z,18.90
2018-07-01T02:42:03.087Z,19.20
2018-07-01T02:44:30.645Z,19.10
2018-07-01T02:46:58.212Z,19.40
2018-07-01T02:49:25.679Z,19.40
2018-07-01T02:51:53.403Z,19.40
2018-07-01T02:54:20.877Z,18.90
2018-07-01T02:56:48.334Z,18.60
2018-07-01T02:59:16.422Z,18.50
2018-07-01T03:01:43.901Z,18.60
2018-07-01T03:04:11.474Z,18.90
2018-07-01T03:06:39.041Z,19.00
2018-07-01T03:09:08.037Z,18.80
2018-07-01T03:11:35.601Z,18.80
2018-07-01T03:14:03.074Z,18.90
2018-07-01T03:16:30.539Z,18.60
2018-07-01T03:18:58.769Z,18.60
2018-07-01T03:21:26.256Z,18.60
2018-07-01T03:23:53.717Z,18.70
2018-07-01T03:26:21.285Z,18.50
2018-07-01T03:28:48.756Z,18.40
2018-07-01T03:31:17.723Z,18.70
2018-07-01T03:33:45.180Z,18.70
2018-07-01T03:36:12.643Z,18.70
2018-07-01T03:38:40.161Z,18.50
2018-07-01T03:41:08.415Z,18.70
2018-07-01T03:43:35.895Z,18.70
2018-07-01T03:46:04.133Z,18.40
2018-07-01T03:48:31.649Z,18.40
2018-07-01T03:50:59.068Z,18.40
2018-07-01T03:53:26.641Z,18.50
2018-07-01T03:55:54.082Z,18.50
2018-07-01T03:58:21.546Z,18.60
2018-07-01T04:00:49.007Z,18.50
2018-07-01T04:03:16.493Z,18.60
2018-07-01T04:05:44.076Z,18.70
2018-07-01T04:08:12.307Z,18.60
2018-07-01T04:10:39.751Z,18.60
2018-07-01T04:13:07.234Z,18.70
2018-07-01T04:15:34.720Z,18.70
2018-07-01T04:18:03.108Z,18.50
2018-07-01T04:20:30.571Z,18.50
2018-07-01T04:22:58.048Z,18.40
2018-07-01T04:25:26.317Z,18.30
2018-07-01T04:27:54.546Z,18.20
2018-07-01T04:30:22.007Z,18.20
2018-07-01T04:32:49.472Z,18.00
2018-07-01T04:35:16.969Z,18.30
2018-07-01T04:37:44.530Z,18.50
2018-07-01T04:40:12.100Z,18.50
2018-07-01T04:42:39.609Z,18.50
2018-07-01T04:45:07.015Z,18.70
2018-07-01T04:47:34.596Z,18.40
2018-07-01T04:50:02.160Z,18.40
2018-07-01T04:52:31.156Z,18.40
2018-07-01T04:54:58.644Z,18.40
2018-07-01T04:57:27.594Z,18.60
2018-07-01T04:59:55.043Z,18.60
2018-07-01T05:02:22.548Z,18.40
2018-07-01T05:04:50.000Z,18.70
2018-07-01T05:07:17.463Z,18.60
2018-07-01T05:09:44.978Z,18.40
2018-07-01T05:12:12.440Z,18.40
2018-07-01T05:14:39.908Z,18.60
2018-07-01T05:17:07.375Z,18.50
2018-07-01T05:19:34.837Z,18.70
2018-07-01T05:22:02.287Z,18.90
2018-07-01T05:24:29.782Z,19.00
2018-07-01T05:26:57.247Z,18.90
2018-07-01T05:29:24.822Z,18.80
2018-07-01T05:31:52.325Z,18.80
2018-07-01T05:34:20.567Z,18.90
2018-07-01T05:36:48.028Z,18.90
2018-07-01T05:39:15.620Z,19.00
2018-07-01T05:41:43.850Z,19.10
2018-07-01T05:44:11.336Z,19.10
2018-07-01T05:46:38.811Z,19.10
2018-07-01T05:49:07.033Z,19.30
2018-07-01T05:51:34.533Z,19.30
2018-07-01T05:54:02.124Z,19.30
2018-07-01T05:56:30.360Z,19.50
2018-07-01T05:58:57.828Z,19.40
2018-07-01T06:01:25.404Z,19.50
2018-07-01T06:03:52.854Z,19.40
2018-07-01T06:06:20.329Z,19.50
2018-07-01T06:08:48.583Z,19.60
2018-07-01T06:11:16.043Z,19.50
2018-07-01T06:13:44.309Z,19.70
2018-07-01T06:16:11.755Z,19.80
2018-07-01T06:18:39.237Z,19.90
2018-07-01T06:21:06.696Z,20.00
2018-07-01T06:23:34.153Z,20.10
2018-07-01T06:26:01.615Z,20.10
2018-07-01T06:28:29.122Z,20.10
2018-07-01T06:30:56.693Z,20.20
2018-07-01T06:33:24.155Z,20.40
2018-07-01T06:35:51.721Z,20.50
2018-07-01T06:38:19.184Z,20.60
2018-07-01T06:40:46.644Z,20.80
2018-07-01T06:43:14.108Z,20.90
2018-07-01T06:45:42.361Z,21.00
2018-07-01T06:48:09.851Z,21.00
2018-07-01T06:50:37.312Z,21.00
2018-07-01T06:53:06.313Z,21.00
2018-07-01T06:55:33.769Z,21.10
2018-07-01T06:58:01.334Z,21.10
2018-07-01T07:00:28.799Z,21.10
2018-07-01T07:02:57.767Z,21.20
2018-07-01T07:05:25.228Z,21.20
2018-07-01T07:07:53.033Z,21.30
2018-07-01T07:10:20.428Z,21.20
2018-07-01T07:12:47.945Z,21.20
2018-07-01T07:15:15.418Z,21.40
2018-07-01T07:17:43.648Z,21.60
2018-07-01T07:20:11.101Z,21.60
2018-07-01T07:22:38.712Z,21.70
2018-07-01T07:25:06.172Z,21.80
2018-07-01T07:27:33.636Z,21.80
2018-07-01T07:30:01.095Z,21.80
2018-07-01T07:32:28.952Z,21.90
2018-07-01T07:34:56.412Z,21.90
2018-07-01T07:37:23.871Z,21.90
2018-07-01T07:39:51.328Z,22.10
2018-07-01T07:42:18.818Z,22.20
2018-07-01T07:44:46.275Z,22.30
2018-07-01T07:47:13.786Z,22.40
2018-07-01T07:49:41.211Z,22.40
2018-07-01T07:52:08.779Z,22.60
2018-07-01T07:54:37.852Z,22.80
2018-07-01T07:57:05.425Z,22.80
2018-07-01T07:59:32.876Z,22.80
2018-07-01T08:02:00.391Z,22.80
2018-07-01T08:04:27.852Z,22.80
2018-07-01T08:06:56.091Z,22.80
2018-07-01T08:09:24.463Z,22.70
2018-07-01T08:11:51.926Z,22.90
2018-07-01T08:14:19.403Z,22.90
2018-07-01T08:16:46.854Z,23.00
2018-07-01T08:19:14.315Z,23.00
2018-07-01T08:21:41.776Z,23.10
2018-07-01T08:24:09.235Z,23.10
2018-07-01T08:26:36.696Z,23.30
2018-07-01T08:29:04.219Z,23.30
2018-07-01T08:31:31.615Z,23.50
2018-07-01T08:33:59.094Z,23.50
2018-07-01T08:36:26.676Z,23.50
2018-07-01T08:38:55.639Z,23.60
2018-07-01T08:41:23.127Z,23.60
2018-07-01T08:43:50.599Z,23.90
2018-07-01T08:46:18.861Z,23.90
2018-07-01T08:48:46.354Z,23.90
2018-07-01T08:51:14.585Z,24.10
2018-07-01T08:53:42.060Z,24.10
2018-07-01T08:56:09.527Z,24.20
2018-07-01T08:58:36.982Z,24.30
2018-07-01T09:01:04.549Z,24.30
2018-07-01T09:03:32.000Z,24.30
2018-07-01T09:05:59.475Z,24.20
2018-07-01T09:08:27.000Z,24.30
2018-07-01T09:10:54.431Z,24.50
2018-07-01T09:13:22.685Z,24.70
2018-07-01T09:15:50.161Z,24.70
2018-07-01T09:18:17.675Z,24.50
2018-07-01T09:20:45.173Z,24.60
2018-07-01T09:23:12.738Z,24.70
2018-07-01T09:25:40.195Z,24.70
2018-07-01T09:28:08.480Z,24.80
2018-07-01T09:30:35.950Z,24.80
2018-07-01T09:33:03.428Z,25.00
2018-07-01T09:35:31.691Z,25.00
2018-07-01T09:37:59.250Z,25.00
2018-07-01T09:40:26.704Z,25.00
2018-07-01T09:42:54.154Z,25.00
2018-07-01T09:45:21.644Z,24.90
2018-07-01T09:47:49.884Z,24.90
2018-07-01T09:50:17.442Z,24.90
2018-07-01T09:52:44.807Z,25.00
2018-07-01T09:55:12.259Z,24.90
2018-07-01T09:57:39.766Z,25.00
2018-07-01T10:00:07.334Z,25.00
2018-07-01T10:02:34.890Z,25.20
2018-07-01T10:05:02.608Z,25.20
2018-07-01T10:07:30.131Z,25.20
2018-07-01T10:09:57.683Z,25.30
2018-07-01T10:12:25.152Z,25.30
2018-07-01T10:14:52.621Z,25.30
2018-07-01T10:17:21.597Z,25.20
2018-07-01T10:19:49.067Z,25.30
2018-07-01T10:22:16.523Z,25.30
2018-07-01T10:24:43.995Z,25.30
2018-07-01T10:27:11.462Z,25.20
2018-07-01T10:29:38.920Z,25.30
2018-07-01T10:32:06.486Z,25.30
2018-07-01T10:34:34.042Z,25.30
2018-07-01T10:37:01.515Z,25.30
2018-07-01T10:39:29.089Z,25.40
2018-07-01T10:41:58.060Z,25.60
2018-07-01T10:44:25.527Z,25.70
2018-07-01T10:46:52.979Z,25.80
2018-07-01T10:49:20.526Z,25.90
2018-07-01T10:51:48.115Z,25.80
2018-07-01T10:54:15.480Z,25.90
2018-07-01T10:56:43.050Z,25.90
2018-07-01T10:59:10.501Z,25.90
2018-07-01T11:01:37.955Z,25.80
2018-07-01T11:04:05.448Z,25.90
2018-07-01T11:06:33.731Z,25.90
2018-07-01T11:09:02.714Z,25.90
2018-07-01T11:11:30.278Z,25.90
2018-07-01T11:13:58.878Z,26.40
2018-07-01T11:16:27.835Z,26.40
2018-07-01T11:18:55.330Z,26.40
2018-07-01T11:21:24.331Z,26.30
2018-07-01T11:23:52.259Z,26.30
2018-07-01T11:26:19.732Z,26.40
2018-07-01T11:28:47.219Z,26.40
2018-07-01T11:31:14.764Z,26.50
2018-07-01T11:33:42.207Z,26.70
2018-07-01T11:36:09.716Z,26.70
2018-07-01T11:38:38.709Z,26.80
2018-07-01T11:41:06.175Z,26.80
2018-07-01T11:43:35.187Z,26.90
2018-07-01T11:46:03.795Z,26.90
2018-07-01T11:48:32.025Z,26.70
2018-07-01T11:50:59.479Z,26.80
2018-07-01T11:53:26.948Z,26.90
2018-07-01T11:55:54.404Z,26.80
2018-07-01T11:58:23.002Z,27.10
2018-07-01T12:00:50.465Z,27.10
2018-07-01T12:03:17.955Z,27.10
2018-07-01T12:05:45.470Z,27.00
2018-07-01T12:08:12.964Z,27.00
2018-07-01T12:10:40.453Z,27.00
2018-07-01T12:13:08.672Z,27.10
2018-07-01T12:15:36.129Z,27.10
2018-07-01T12:18:03.624Z,27.10
2018-07-01T12:20:31.089Z,27.10
2018-07-01T12:22:58.548Z,27.00
2018-07-01T12:25:26.111Z,27.00
2018-07-01T12:27:53.581Z,27.10
2018-07-01T12:30:21.148Z,27.20
2018-07-01T12:32:49.371Z,27.40
2018-07-01T12:35:16.848Z,27.40
2018-07-01T12:37:44.320Z,27.60
2018-07-01T12:40:11.779Z,27.70
2018-07-01T12:42:39.740Z,27.50
2018-07-01T12:45:07.203Z,27.60
2018-07-01T12:47:34.663Z,27.60
2018-07-01T12:50:02.130Z,27.50
2018-07-01T12:52:29.587Z,27.60
2018-07-01T12:54:57.087Z,27.70
2018-07-01T12:57:24.663Z,27.90
2018-07-01T12:59:52.119Z,27.80
2018-07-01T13:02:19.750Z,27.90
2018-07-01T13:04:47.904Z,28.00
2018-07-01T13:07:16.146Z,27.70
2018-07-01T13:09:43.712Z,27.70
2018-07-01T13:12:11.286Z,27.50
2018-07-01T13:14:38.763Z,27.70
2018-07-01T13:17:06.226Z,28.00
2018-07-01T13:19:34.987Z,28.00
2018-07-01T13:22:03.621Z,28.10
2018-07-01T13:24:31.843Z,28.10
2018-07-01T13:26:59.311Z,28.10
2018-07-01T13:29:26.782Z,28.00
2018-07-01T13:31:54.252Z,28.10
2018-07-01T13:34:21.714Z,28.00
2018-07-01T13:36:49.301Z,28.40
2018-07-01T13:39:17.548Z,28.50
2018-07-01T13:41:45.036Z,28.40
2018-07-01T13:44:12.487Z,28.30
2018-07-01T13:46:39.948Z,28.60
2018-07-01T13:49:07.446Z,28.60
2018-07-01T13:51:34.899Z,28.70
2018-07-01T13:54:03.835Z,28.90
2018-07-01T13:56:31.535Z,28.90
2018-07-01T13:58:59.095Z,28.80
2018-07-01T14:01:27.144Z,28.70
2018-07-01T14:03:54.598Z,28.60
2018-07-01T14:06:22.119Z,28.70
2018-07-01T14:08:50.332Z,28.90
2018-07-01T14:11:17.809Z,28.90
2018-07-01T14:13:45.276Z,29.00
2018-07-01T14:16:12.732Z,29.00
2018-07-01T14:18:40.196Z,29.00
2018-07-01T14:21:07.678Z,29.00
2018-07-01T14:23:35.225Z,29.00
2018-07-01T14:26:02.716Z,28.80
2018-07-01T14:28:30.185Z,29.00
2018-07-01T14:30:57.801Z,28.90
2018-07-01T14:33:25.295Z,28.70
2018-07-01T14:35:52.768Z,28.90
2018-07-01T14:38:22.163Z,29.00
2018-07-01T14:40:49.627Z,28.90
2018-07-01T14:43:17.193Z,29.00
2018-07-01T14:45:44.652Z,29.20
2018-07-01T14:48:12.108Z,29.00
2018-07-01T14:50:39.571Z,29.20
2018-07-01T14:53:07.145Z,29.10
2018-07-01T14:55:34.594Z,29.10
2018-07-01T14:58:02.056Z,29.40
2018-07-01T15:00:29.521Z,29.40
2018-07-01T15:02:56.979Z,29.20
2018-07-01T15:05:24.485Z,29.20
2018-07-01T15:07:51.927Z,29.10
2018-07-01T15:10:19.493Z,29.40
2018-07-01T15:12:46.970Z,29.30
2018-07-01T15:15:14.593Z,29.30
2018-07-01T15:17:42.055Z,29.30
2018-07-01T15:20:09.516Z,29.40
2018-07-01T15:22:36.991Z,29.20
2018-07-01T15:25:04.448Z,29.50
2018-07-01T15:27:31.923Z,29.50
2018-07-01T15:29:59.492Z,29.50
2018-07-01T15:32:27.053Z,29.30
2018-07-01T15:34:54.503Z,29.40
2018-07-01T15:37:21.963Z,29.60
2018-07-01T15:39:49.435Z,29.60
2018-07-01T15:42:16.895Z,29.70
2018-07-01T15:44:44.367Z,29.60
2018-07-01T15:47:11.815Z,29.60
2018-07-01T15:49:39.294Z,29.80
2018-07-01T15:52:06.736Z,29.80
2018-07-01T15:54:34.194Z,29.60
2018-07-01T15:57:01.652Z,29.50
2018-07-01T15:59:29.155Z,29.60
2018-07-01T16:01:56.607Z,29.50
2018-07-01T16:04:24.079Z,29.40
2018-07-01T16:06:51.532Z,29.60
2018-07-01T16:09:19.000Z,29.10
2018-07-01T16:11:46.511Z,29.20
2018-07-01T16:14:13.971Z,29.40
2018-07-01T16:16:41.429Z,29.50
2018-07-01T16:19:08.885Z,29.30
2018-07-01T16:21:36.356Z,29.60
2018-07-01T16:24:03.803Z,29.30
2018-07-01T16:26:31.266Z,29.60
2018-07-01T16:28:58.732Z,29.50
2018-07-01T16:31:26.243Z,29.40
2018-07-01T16:33:54.582Z,29.10
2018-07-01T16:36:22.045Z,29.10
2018-07-01T16:38:49.508Z,29.40
2018-07-01T16:41:16.961Z,29.40
2018-07-01T16:43:44.435Z,29.10
2018-07-01T16:46:11.896Z,29.30
2018-07-01T16:48:39.353Z,29.70
2018-07-01T16:51:06.820Z,29.80
2018-07-01T16:53:34.276Z,29.30
2018-07-01T16:56:01.745Z,29.70
2018-07-01T16:58:29.211Z,29.40
2018-07-01T17:00:56.719Z,29.80
2018-07-01T17:03:24.179Z,29.30
2018-07-01T17:05:51.685Z,28.80
2018-07-01T17:08:19.868Z,28.90
2018-07-01T17:10:48.325Z,28.80
2018-07-01T17:13:15.885Z,29.00
2018-07-01T17:15:43.431Z,29.10
2018-07-01T17:18:10.905Z,29.00
2018-07-01T17:20:38.452Z,29.00
2018-07-01T17:23:05.935Z,28.80
2018-07-01T17:25:33.391Z,29.10
2018-07-01T17:28:00.936Z,29.00
2018-07-01T17:30:28.407Z,29.40
2018-07-01T17:35:51.192Z,29.50
2018-07-01T17:38:18.726Z,29.30
2018-07-01T17:40:46.186Z,29.20
2018-07-01T17:43:13.665Z,29.20
2018-07-01T17:45:41.154Z,29.20
2018-07-01T17:48:09.408Z,28.90
2018-07-01T17:50:36.886Z,28.90
2018-07-01T17:53:05.130Z,28.80
2018-07-01T17:55:32.599Z,28.80
2018-07-01T17:58:00.628Z,29.10
2018-07-01T18:00:28.111Z,29.20
2018-07-01T18:02:55.556Z,29.10
2018-07-01T18:05:23.030Z,29.30
2018-07-01T18:07:50.484Z,29.30
2018-07-01T18:10:17.943Z,28.80
2018-07-01T18:12:45.453Z,28.90
2018-07-01T18:15:12.904Z,29.00
2018-07-01T18:17:40.371Z,28.80
2018-07-01T18:20:07.828Z,28.60
2018-07-01T18:23:00.806Z,29.10
2018-07-01T18:25:09.841Z,28.60
2018-07-01T18:27:36.095Z,28.80
2018-07-01T18:29:58.615Z,28.80
2018-07-01T18:32:26.072Z,28.90
2018-07-01T18:34:54.106Z,28.80
2018-07-01T18:37:21.559Z,29.00
2018-07-01T18:39:49.029Z,29.10
2018-07-01T18:42:16.479Z,29.30
2018-07-01T18:44:43.951Z,29.30
2018-07-01T18:47:11.408Z,29.50
2018-07-01T18:49:38.873Z,29.10
2018-07-01T18:52:06.337Z,28.80
2018-07-01T18:54:33.807Z,28.90
2018-07-01T18:57:01.300Z,28.90
2018-07-01T18:59:28.770Z,28.50
2018-07-01T19:01:57.044Z,28.60
2018-07-01T19:04:24.500Z,28.60
2018-07-01T19:06:52.067Z,28.50
2018-07-01T19:09:19.592Z,28.90
2018-07-01T19:11:47.038Z,29.00
2018-07-01T19:14:15.264Z,28.70
2018-07-01T19:16:42.725Z,28.70
2018-07-01T19:19:10.208Z,28.70
2018-07-01T19:21:37.771Z,28.30
2018-07-01T19:24:05.242Z,28.40
2018-07-01T19:26:32.707Z,28.40
2018-07-01T19:29:01.674Z,28.50
2018-07-01T19:31:29.137Z,28.40
2018-07-01T19:33:56.693Z,28.20
2018-07-01T19:36:24.216Z,28.30
2018-07-01T19:38:51.611Z,28.30
2018-07-01T19:41:19.091Z,28.20
2018-07-01T19:43:46.557Z,27.80
2018-07-01T19:46:14.127Z,27.90
2018-07-01T19:48:41.631Z,28.00
2018-07-01T19:51:09.824Z,28.40
2018-07-01T19:53:38.232Z,28.40
2018-07-01T19:56:05.699Z,28.50
2018-07-01T19:58:33.187Z,28.50
2018-07-01T20:01:01.433Z,28.20
2018-07-01T20:03:28.883Z,28.20
2018-07-01T20:05:56.350Z,28.40
2018-07-01T20:08:23.830Z,28.20
2018-07-01T20:10:51.287Z,28.30
2018-07-01T20:13:18.768Z,28.30
2018-07-01T20:15:46.220Z,28.40
2018-07-01T20:18:13.806Z,28.40
2018-07-01T20:20:41.279Z,28.30
2018-07-01T20:23:08.730Z,28.40
2018-07-01T20:25:36.309Z,28.30
2018-07-01T20:28:03.766Z,28.40
2018-07-01T20:30:32.334Z,28.30
2018-07-01T20:32:59.795Z,28.10
2018-07-01T20:35:28.033Z,28.30
2018-07-01T20:37:55.495Z,28.20
2018-07-01T20:40:22.954Z,28.30
2018-07-01T20:42:50.423Z,28.20
2018-07-01T20:45:17.923Z,28.20
2018-07-01T20:47:45.386Z,28.10
2018-07-01T20:50:12.857Z,27.80
2018-07-01T20:52:41.842Z,24.20
2018-07-01T20:55:09.301Z,24.20
2018-07-01T20:57:36.773Z,23.50
2018-07-01T21:00:05.061Z,23.20
2018-07-01T21:02:32.531Z,23.20
2018-07-01T21:04:59.995Z,23.50
2018-07-01T21:07:28.239Z,23.60
2018-07-01T21:09:55.745Z,23.60
2018-07-01T21:12:23.243Z,23.10
2018-07-01T21:14:50.703Z,22.80
2018-07-01T21:17:18.173Z,22.40
2018-07-01T21:19:45.648Z,22.60
2018-07-01T21:22:13.098Z,22.60
2018-07-01T21:24:40.582Z,23.30
2018-07-01T21:27:08.062Z,23.30
2018-07-01T21:29:35.584Z,23.00
2018-07-01T21:32:03.770Z,22.80
2018-07-01T21:34:31.257Z,22.80
2018-07-01T21:36:58.732Z,22.70
2018-07-01T21:39:26.194Z,23.10
2018-07-01T21:41:53.695Z,22.80
2018-07-01T21:44:21.259Z,23.00
2018-07-01T21:46:48.744Z,23.00
2018-07-01T21:49:16.808Z,22.80
2018-07-01T21:51:44.716Z,23.30
2018-07-01T21:54:12.188Z,23.00
2018-07-01T21:56:39.745Z,22.60
2018-07-01T21:59:07.279Z,22.80
2018-07-01T22:01:34.768Z,22.70
2018-07-01T22:04:02.249Z,22.50
2018-07-01T22:06:29.736Z,22.30
2018-07-01T22:08:57.175Z,22.80
2018-07-01T22:11:45.423Z,22.50
2018-07-01T22:14:15.850Z,22.00
2018-07-01T22:16:44.111Z,22.40
2018-07-01T22:19:11.578Z,22.40
2018-07-01T22:21:39.047Z,22.10
2018-07-01T22:24:07.310Z,22.00
2018-07-01T22:26:34.876Z,22.00
2018-07-01T22:29:03.112Z,21.70
2018-07-01T22:31:30.587Z,21.70
2018-07-01T22:33:58.040Z,21.50
2018-07-01T22:36:25.535Z,21.40
2018-07-01T22:38:52.999Z,21.70
2018-07-01T22:41:20.573Z,21.80
2018-07-01T22:43:48.168Z,21.90
2018-07-01T22:46:16.383Z,21.90
2018-07-01T22:48:43.850Z,21.80
2018-07-01T22:51:11.319Z,21.50
2018-07-01T22:53:38.785Z,21.50
2018-07-01T22:56:06.262Z,21.50
2018-07-01T22:58:33.727Z,21.90
2018-07-01T23:01:01.204Z,21.90
2018-07-01T23:03:29.455Z,21.50
2018-07-01T23:05:57.027Z,21.50
2018-07-01T23:08:25.252Z,21.50
2018-07-01T23:10:52.778Z,21.50
2018-07-01T23:13:21.134Z,21.60
2018-07-01T23:15:48.879Z,21.50
2018-07-01T23:18:16.354Z,21.30
2018-07-01T23:20:43.854Z,21.30
2018-07-01T23:23:11.314Z,21.80
2018-07-01T23:25:39.579Z,21.40
2018-07-01T23:28:07.031Z,21.40
2018-07-01T23:30:34.497Z,21.30
2018-07-01T23:33:01.959Z,21.50
2018-07-01T23:35:29.535Z,21.60
2018-07-01T23:37:57.103Z,21.50
2018-07-01T23:40:24.674Z,21.70
2018-07-01T23:42:52.902Z,21.60
2018-07-01T23:45:20.367Z,21.60
2018-07-01T23:47:47.860Z,21.20
2018-07-01T23:50:15.443Z,21.30
2018-07-01T23:52:43.007Z,21.30
2018-07-01T23:55:10.482Z,21.00
2018-07-01T23:57:38.716Z,21.30
